Time;durP1;ratioP1;P1;durP2;ratioP2;P2;SDS_P1;SDS_P2;PMS_P1;PMS_P2;Temp;Humidity;BMP_temperature;BMP_pressure;BME280_temperature;BME280_humidity;BME280_pressure;Samples;Min_cycle;Max_cycle;Signal;HPM_P1;HPM_P2
2022/04/26 03:38:32;;;;;;;12.13;7.07;;;8.30;99.90;;;;;;5048120;28;20426;-48
2022/04/26 03:40:58;;;;;;;15.97;8.23;;;8.30;99.90;;;;;;5051650;28;20029;-51
2022/04/26 03:43:23;;;;;;;15.40;6.37;;;8.30;99.90;;;;;;5066054;28;20536;-48
2022/04/26 03:45:49;;;;;;;16.50;9.23;;;8.30;99.90;;;;;;5053314;28;20044;-48
2022/04/26 03:48:15;;;;;;;9.33;8.03;;;8.30;99.90;;;;;;5045593;28;20544;-50
2022/04/26 03:50:40;;;;;;;13.73;7.67;;;8.20;99.90;;;;;;5049444;28;20302;-48
2022/04/26 03:53:06;;;;;;;13.07;8.10;;;8.20;99.90;;;;;;5062821;28;20040;-49
2022/04/26 03:55:32;;;;;;;15.80;8.30;;;8.20;99.90;;;;;;5048953;28;20494;-48
2022/04/26 03:57:57;;;;;;;22.65;10.52;;;8.20;99.90;;;;;;5050205;28;20032;-48
2022/04/26 04:00:23;;;;;;;16.77;8.60;;;8.20;99.90;;;;;;5048553;28;20126;-48
2022/04/26 04:02:49;;;;;;;18.23;9.30;;;8.20;99.90;;;;;;5063492;28;20291;-49
2022/04/26 04:05:15;;;;;;;10.83;8.17;;;8.20;99.90;;;;;;5049804;28;20525;-48
2022/04/26 04:07:40;;;;;;;12.20;9.33;;;8.20;99.90;;;;;;5050993;28;20366;-48
2022/04/26 04:10:07;;;;;;;18.58;9.13;;;8.20;99.90;;;;;;5053353;28;20036;-48
2022/04/26 04:12:32;;;;;;;21.85;9.40;;;8.20;99.90;;;;;;5065906;28;20490;-50
2022/04/26 04:14:58;;;;;;;15.80;9.37;;;8.20;99.90;;;;;;5050693;28;20097;-49
2022/04/26 04:17:23;;;;;;;17.10;9.43;;;8.20;99.90;;;;;;5059336;28;20421;-47
2022/04/26 04:19:49;;;;;;;14.90;9.17;;;8.20;99.90;;;;;;5057112;28;20037;-48
2022/04/26 04:22:14;;;;;;;18.67;9.83;;;8.10;99.90;;;;;;5059312;28;20041;-49
2022/04/26 04:24:40;;;;;;;18.17;9.80;;;8.10;99.90;;;;;;5048663;28;20486;-52
2022/04/26 04:27:06;;;;;;;17.25;9.55;;;8.10;99.90;;;;;;5062872;28;20550;-48
2022/04/26 04:29:31;;;;;;;13.27;8.53;;;8.10;99.90;;;;;;5048593;28;20060;-48
2022/04/26 04:31:57;;;;;;;15.43;9.50;;;8.10;99.90;;;;;;5049309;28;20052;-48
2022/04/26 04:34:22;;;;;;;15.07;10.20;;;8.10;99.90;;;;;;5050013;28;20509;-48
2022/04/26 04:36:48;;;;;;;22.97;10.17;;;8.10;99.90;;;;;;5047956;28;20406;-49
2022/04/26 04:39:19;;;;;;;17.85;9.25;;;8.10;99.90;;;;;;5049564;28;20087;-48
2022/04/26 04:41:47;;;;;;;19.02;9.85;;;8.10;99.90;;;;;;5049014;28;20134;-48
2022/04/26 04:44:13;;;;;;;14.18;9.45;;;8.10;99.90;;;;;;5050505;28;20060;-49
2022/04/26 04:46:38;;;;;;;17.53;9.90;;;8.10;99.90;;;;;;5044530;28;20499;-47
2022/04/26 04:49:04;;;;;;;18.17;10.03;;;8.00;99.90;;;;;;5045228;28;20048;-48
2022/04/26 04:51:30;;;;;;;15.53;9.73;;;8.00;99.90;;;;;;5052192;28;20462;-48
2022/04/26 04:53:55;;;;;;;22.10;10.97;;;8.10;99.90;;;;;;5057041;28;20090;-48
2022/04/26 04:56:23;;;;;;;21.35;11.18;;;8.00;99.90;;;;;;5071184;28;20373;-48
2022/04/26 04:58:48;;;;;;;18.45;10.30;;;8.10;99.90;;;;;;5052105;28;20303;-50
2022/04/26 05:01:14;;;;;;;24.47;10.10;;;8.10;99.90;;;;;;5052393;28;20087;-48
2022/04/26 05:03:40;;;;;;;22.83;10.73;;;8.10;99.90;;;;;;5058410;28;20117;-47
2022/04/26 05:06:05;;;;;;;23.87;9.93;;;8.10;99.90;;;;;;5057180;28;20063;-48
2022/04/26 05:08:31;;;;;;;24.17;10.63;;;8.10;99.90;;;;;;5058791;28;20040;-48
2022/04/26 05:10:56;;;;;;;18.17;9.73;;;8.10;99.90;;;;;;5072714;28;20032;-49
2022/04/26 05:13:22;;;;;;;17.70;8.57;;;8.10;99.90;;;;;;5065716;28;20041;-48
2022/04/26 05:15:47;;;;;;;13.17;8.20;;;8.20;99.90;;;;;;5060406;28;20041;-48
2022/04/26 05:18:13;;;;;;;14.93;7.83;;;8.20;99.90;;;;;;5054762;28;20560;-48
2022/04/26 05:20:39;;;;;;;16.15;8.52;;;8.20;99.90;;;;;;5053747;28;20040;-48
2022/04/26 05:25:49;;;;;;;20.00;6.75;;;8.20;99.90;;;;;;5050714;28;20060;-49
2022/04/26 05:28:15;;;;;;;18.65;8.55;;;8.30;99.90;;;;;;5050263;28;20037;-48
2022/04/26 05:30:40;;;;;;;13.63;7.73;;;8.30;99.90;;;;;;5052939;28;20128;-48
2022/04/26 05:33:06;;;;;;;16.30;7.97;;;8.30;99.90;;;;;;5051741;28;20549;-49
2022/04/26 05:35:31;;;;;;;15.57;7.13;;;8.30;99.90;;;;;;5050580;28;20045;-48
2022/04/26 05:37:57;;;;;;;14.82;7.47;;;8.30;99.90;;;;;;5048948;28;20033;-48
2022/04/26 05:40:23;;;;;;;14.23;6.30;;;8.40;99.90;;;;;;5052908;28;20041;-47
2022/04/26 05:42:48;;;;;;;22.00;7.20;;;8.40;99.90;;;;;;5051348;28;20025;-50
2022/04/26 05:45:14;;;;;;;23.37;6.70;;;8.40;99.90;;;;;;5058316;28;20779;-50
2022/04/26 05:47:43;;;;;;;17.77;6.50;;;8.40;99.90;;;;;;5072305;28;20635;-48
2022/04/26 05:50:10;;;;;;;16.48;5.63;;;8.40;99.90;;;;;;5057706;28;20036;-48
2022/04/26 05:52:36;;;;;;;13.45;6.75;;;8.50;99.90;;;;;;5072192;28;20508;-48
2022/04/26 05:55:04;;;;;;;;;;;8.50;99.90;;;;;;5054184;28;20045;-48
2022/04/26 05:57:30;;;;;;;18.45;7.22;;;8.50;99.90;;;;;;5051275;28;19924;-48
2022/04/26 05:59:56;;;;;;;16.50;5.60;;;8.60;99.90;;;;;;5052605;28;20133;-49
2022/04/26 06:02:21;;;;;;;18.23;5.03;;;8.50;99.90;;;;;;5051074;28;20071;-48
2022/04/26 06:04:47;;;;;;;14.70;5.43;;;8.60;99.90;;;;;;5065413;28;20116;-48
2022/04/26 06:07:12;;;;;;;13.50;4.70;;;8.60;99.90;;;;;;5054423;28;20075;-47
2022/04/26 06:09:38;;;;;;;14.30;4.87;;;8.60;99.90;;;;;;5055875;28;20116;-48
2022/04/26 06:12:07;;;;;;;12.55;5.57;;;8.70;99.90;;;;;;5051661;28;20126;-48
2022/04/26 06:14:32;;;;;;;17.33;4.80;;;8.70;99.90;;;;;;5059208;28;20169;-48
2022/04/26 06:16:58;;;;;;;12.18;5.35;;;8.80;99.90;;;;;;5063646;28;20120;-48
2022/04/26 06:19:23;;;;;;;10.90;5.90;;;8.80;99.90;;;;;;5051865;28;20040;-49
2022/04/26 06:21:49;;;;;;;13.93;4.93;;;8.90;99.90;;;;;;5050302;28;20140;-48
2022/04/26 06:24:14;;;;;;;12.77;4.30;;;8.90;99.90;;;;;;5051785;28;20087;-48
2022/04/26 06:26:40;;;;;;;16.17;4.87;;;8.90;99.90;;;;;;5059519;28;20051;-49
2022/04/26 06:29:06;;;;;;;14.80;5.37;;;9.00;99.90;;;;;;5057245;28;20049;-50
2022/04/26 06:31:31;;;;;;;25.67;5.83;;;9.10;99.90;;;;;;5051990;28;20048;-48
2022/04/26 06:33:57;;;;;;;16.70;5.70;;;9.10;99.90;;;;;;5050904;28;20052;-48
2022/04/26 06:36:22;;;;;;;12.40;4.83;;;9.10;99.90;;;;;;5067856;28;20044;-48
2022/04/26 06:38:48;;;;;;;14.83;4.60;;;9.20;99.90;;;;;;5053275;28;20037;-50
2022/04/26 06:41:13;;;;;;;9.23;4.80;;;9.20;99.90;;;;;;5037104;28;20137;-48
2022/04/26 06:43:39;;;;;;;16.80;5.53;;;9.30;99.90;;;;;;5034163;28;20037;-49
2022/04/26 06:46:05;;;;;;;16.30;5.17;;;9.30;99.90;;;;;;5067983;28;20040;-48
2022/04/26 06:48:30;;;;;;;13.30;4.43;;;9.40;99.90;;;;;;5048854;28;20044;-54
2022/04/26 06:50:56;;;;;;;16.90;4.73;;;9.40;99.90;;;;;;5038087;28;20055;-49
2022/04/26 06:53:22;;;;;;;12.30;5.00;;;9.50;99.90;;;;;;5072241;28;20049;-48
2022/04/26 06:55:48;;;;;;;13.63;5.38;;;9.50;99.90;;;;;;5034337;28;20060;-48
2022/04/26 06:58:13;;;;;;;11.93;5.38;;;9.50;99.90;;;;;;5068522;28;20102;-48
2022/04/26 07:00:39;;;;;;;14.20;4.77;;;9.60;99.90;;;;;;5041131;28;20036;-48
2022/04/26 07:03:05;;;;;;;9.95;4.70;;;9.60;99.90;;;;;;5040956;28;20037;-48
2022/04/26 07:05:30;;;;;;;13.30;4.90;;;9.70;99.90;;;;;;5043249;28;20055;-49
2022/04/26 07:07:56;;;;;;;13.73;5.47;;;9.70;99.90;;;;;;5043847;28;20484;-49
2022/04/26 07:10:22;;;;;;;13.70;4.97;;;9.80;99.90;;;;;;5038290;28;20123;-48
2022/04/26 07:12:48;;;;;;;22.95;5.65;;;9.80;99.90;;;;;;5031323;28;20299;-50
2022/04/26 07:15:14;;;;;;;13.50;5.25;;;9.90;99.90;;;;;;5044383;28;20049;-48
2022/04/26 07:17:40;;;;;;;14.40;5.47;;;10.00;99.90;;;;;;5046108;28;20037;-48
2022/04/26 07:20:08;;;;;;;11.75;4.93;;;10.00;99.90;;;;;;5044238;28;20087;-47
2022/04/26 07:22:34;;;;;;;13.07;4.38;;;10.00;99.90;;;;;;5039344;28;20040;-49
2022/04/26 07:25:00;;;;;;;13.85;5.22;;;10.10;99.90;;;;;;5042785;28;20043;-51
2022/04/26 07:27:25;;;;;;;12.43;4.70;;;10.10;99.90;;;;;;5039127;28;20036;-49
2022/04/26 07:29:52;;;;;;;17.40;5.00;;;10.10;99.90;;;;;;5037543;28;20029;-48
2022/04/26 07:32:18;;;;;;;10.90;5.00;;;10.10;99.90;;;;;;5040428;28;20029;-48
2022/04/26 07:34:45;;;;;;;17.85;7.50;;;10.10;99.90;;;;;;5043370;28;20037;-50
2022/04/26 07:37:11;;;;;;;14.80;5.95;;;10.10;99.90;;;;;;5076465;28;20502;-48
2022/04/26 07:39:37;;;;;;;11.90;6.00;;;10.10;99.90;;;;;;5043252;28;20044;-48
2022/04/26 07:42:04;;;;;;;13.85;6.07;;;10.10;99.90;;;;;;5043971;28;20276;-48
2022/04/26 07:44:31;;;;;;;15.52;6.53;;;10.20;99.90;;;;;;5046835;28;20513;-51
2022/04/26 07:46:57;;;;;;;14.63;6.25;;;10.20;99.90;;;;;;5043528;28;20048;-47
2022/04/26 07:49:23;;;;;;;8.40;5.50;;;10.20;99.90;;;;;;5044581;28;20041;-47
2022/04/26 07:51:50;;;;;;;14.98;5.57;;;10.30;99.90;;;;;;5073044;28;20056;-48
2022/04/26 07:54:16;;;;;;;10.93;5.97;;;10.30;99.90;;;;;;5039916;28;20044;-51
2022/04/26 07:56:43;;;;;;;17.17;6.75;;;10.30;99.90;;;;;;5038145;28;20064;-52
2022/04/26 07:59:09;;;;;;;16.38;6.13;;;10.40;99.90;;;;;;5033441;28;20045;-47
2022/04/26 08:01:35;;;;;;;11.65;5.88;;;10.40;99.90;;;;;;5043259;28;20033;-48
2022/04/26 08:04:01;;;;;;;16.13;6.05;;;10.40;99.90;;;;;;5030132;28;20029;-48
2022/04/26 08:06:27;;;;;;;12.43;6.28;;;10.50;99.90;;;;;;5043989;28;20459;-48
2022/04/26 08:08:58;;;;;;;10.00;5.18;;;10.50;99.90;;;;;;5049091;28;20551;-48
2022/04/26 08:11:24;;;;;;;9.18;6.25;;;10.60;99.90;;;;;;5048460;28;20053;-47
2022/04/26 08:13:50;;;;;;;11.23;5.20;;;10.60;99.90;;;;;;5039459;28;20043;-48
2022/04/26 08:16:15;;;;;;;13.57;5.90;;;10.70;99.70;;;;;;5045407;28;20503;-48
2022/04/26 08:18:41;;;;;;;9.17;5.00;;;10.70;99.80;;;;;;5044009;28;20077;-48
2022/04/26 08:21:07;;;;;;;11.60;4.57;;;10.70;99.70;;;;;;5049960;28;20291;-49
2022/04/26 08:27:22;;;;;;;11.35;4.15;;;10.80;99.80;;;;;;5046688;28;20766;-47
2022/04/26 08:29:14;;;;;;;9.90;3.83;;;10.90;99.60;;;;;;5047892;28;20413;-48
2022/04/26 08:31:40;;;;;;;8.18;3.63;;;10.90;99.00;;;;;;5047350;28;20498;-49
2022/04/26 08:34:06;;;;;;;7.80;3.45;;;10.90;98.60;;;;;;5049203;28;20366;-49
2022/04/26 08:36:31;;;;;;;6.63;3.83;;;10.90;98.40;;;;;;5048880;28;20540;-48
2022/04/26 08:38:57;;;;;;;9.68;4.43;;;11.00;98.40;;;;;;5045932;28;20385;-49
2022/04/26 08:41:23;;;;;;;18.85;4.20;;;11.00;98.40;;;;;;5048720;28;20037;-48
2022/04/26 08:43:48;;;;;;;7.83;3.67;;;11.00;98.20;;;;;;5046311;28;20048;-49
2022/04/26 08:46:14;;;;;;;7.57;3.20;;;11.00;98.20;;;;;;5046790;28;20036;-48
2022/04/26 08:51:24;;;;;;;9.77;2.88;;;11.10;97.60;;;;;;5049412;28;20056;-48
2022/04/26 08:53:49;;;;;;;5.10;2.60;;;11.20;97.50;;;;;;5048004;28;20387;-47
2022/04/26 08:56:16;;;;;;;10.17;3.03;;;11.20;97.30;;;;;;5047012;28;20457;-48
2022/04/26 08:58:42;;;;;;;;;;;11.20;97.30;;;;;;5046967;28;20033;-48
2022/04/26 09:01:08;;;;;;;7.85;2.90;;;11.20;96.80;;;;;;5047438;28;19967;-48
2022/04/26 09:03:37;;;;;;;10.10;2.60;;;11.30;96.80;;;;;;5048724;28;20032;-50
2022/04/26 09:06:12;;;;;;;10.10;3.08;;;11.30;96.80;;;;;;5045422;28;20073;-48
2022/04/26 09:08:39;;;;;;;5.93;2.80;;;11.30;96.40;;;;;;5048756;28;20132;-50
2022/04/26 09:11:33;;;;;;;6.70;3.00;;;11.30;96.20;;;;;;5047155;28;20033;-48
2022/04/26 09:13:59;;;;;;;4.90;3.33;;;11.40;96.10;;;;;;5047547;28;20098;-49
2022/04/26 09:16:25;;;;;;;5.82;2.55;;;11.40;96.20;;;;;;5046729;28;20037;-48
2022/04/26 09:18:54;;;;;;;7.95;2.67;;;11.50;95.70;;;;;;5048086;28;20410;-48
2022/04/26 09:21:20;;;;;;;6.72;2.60;;;11.60;95.70;;;;;;5048115;28;20048;-48
2022/04/26 09:23:47;;;;;;;5.05;1.75;;;11.60;95.20;;;;;;5046861;28;20033;-49
2022/04/26 09:26:15;;;;;;;9.68;3.50;;;11.70;94.70;;;;;;5046435;28;20040;-48
2022/04/26 09:28:45;;;;;;;10.10;3.78;;;11.70;94.90;;;;;;5047981;28;20056;-48
2022/04/26 09:31:28;;;;;;;5.60;2.00;;;11.80;95.00;;;;;;5045671;28;20327;-48
2022/04/26 09:34:05;;;;;;;9.52;4.15;;;11.80;94.90;;;;;;5046745;28;20048;-48
2022/04/26 09:36:41;;;;;;;8.57;2.38;;;11.90;94.50;;;;;;5046216;28;20125;-50
2022/04/26 09:39:08;;;;;;;5.50;2.35;;;11.90;94.50;;;;;;5047804;28;20119;-48
2022/04/26 09:41:35;;;;;;;13.95;3.60;;;11.90;94.40;;;;;;5078898;28;20509;-49
2022/04/26 09:44:08;;;;;;;23.75;2.95;;;11.80;94.60;;;;;;5046211;28;20060;-49
2022/04/26 09:46:42;;;;;;;5.38;2.38;;;11.90;94.50;;;;;;5046603;28;20053;-50
2022/04/26 09:49:18;;;;;;;11.23;2.85;;;11.90;94.20;;;;;;5046360;28;20110;-48
2022/04/26 09:51:44;;;;;;;7.10;2.80;;;11.90;94.00;;;;;;5048084;28;20037;-48
2022/04/26 09:54:10;;;;;;;6.85;2.90;;;11.90;93.80;;;;;;5047170;28;20041;-49
2022/04/26 09:56:35;;;;;;;11.87;2.50;;;11.90;93.80;;;;;;5049500;28;20060;-48
2022/04/26 09:59:03;;;;;;;6.85;2.95;;;12.00;93.90;;;;;;5042689;28;20067;-48
2022/04/26 10:01:41;;;;;;;12.27;2.45;;;12.10;93.60;;;;;;5044846;28;20110;-52
2022/04/26 10:04:09;;;;;;;6.93;2.85;;;12.30;93.70;;;;;;5046694;28;20083;-48
2022/04/26 10:06:36;;;;;;;6.78;2.05;;;12.40;93.20;;;;;;5040890;28;20580;-48
2022/04/26 10:09:07;;;;;;;4.13;2.40;;;12.50;92.80;;;;;;5036044;28;20721;-48
2022/04/26 10:11:33;;;;;;;6.82;1.88;;;12.60;92.80;;;;;;5046966;28;20037;-49
2022/04/26 10:14:01;;;;;;;8.38;2.85;;;12.70;92.40;;;;;;5047731;28;20049;-48
2022/04/26 10:16:27;;;;;;;15.52;2.78;;;12.80;92.50;;;;;;5038390;28;20065;-48
2022/04/26 10:19:06;;;;;;;26.15;2.33;;;12.80;92.30;;;;;;5044887;28;20025;-48
2022/04/26 10:21:38;;;;;;;6.40;2.50;;;12.90;91.80;;;;;;5045647;28;20409;-48
2022/04/26 10:24:14;;;;;;;5.55;2.55;;;13.00;91.50;;;;;;5043298;28;20033;-49
2022/04/26 10:26:40;;;;;;;8.63;2.17;;;13.10;91.20;;;;;;5046039;28;20118;-49
2022/04/26 10:29:09;;;;;;;5.38;2.55;;;13.10;91.70;;;;;;5045055;28;20037;-48
2022/04/26 10:32:10;;;;;;;9.65;2.38;;;13.20;91.80;;;;;;5044061;28;20418;-48
2022/04/26 10:34:36;;;;;;;10.10;2.92;;;13.10;91.10;;;;;;5047267;28;20048;-48
2022/04/26 10:37:22;;;;;;;6.97;2.15;;;13.20;90.90;;;;;;5045795;28;20368;-48
2022/04/26 10:40:02;;;;;;;6.93;2.30;;;13.20;90.20;;;;;;5045895;28;20689;-48
2022/04/26 10:42:30;;;;;;;4.85;2.35;;;13.20;90.10;;;;;;5045610;28;20037;-48
2022/04/26 10:45:06;;;;;;;4.28;2.28;;;13.30;90.20;;;;;;5045184;28;20111;-48
2022/04/26 10:47:31;;;;;;;9.80;2.30;;;13.30;90.30;;;;;;5046230;28;20068;-49
2022/04/26 10:49:58;;;;;;;7.97;2.40;;;13.40;90.00;;;;;;5045502;28;20131;-49
2022/04/26 10:52:34;;;;;;;5.07;2.55;;;13.40;90.20;;;;;;5046396;28;20045;-48
2022/04/26 10:54:59;;;;;;;5.78;2.45;;;13.50;90.50;;;;;;5045314;28;20041;-48
2022/04/26 10:57:27;;;;;;;7.75;2.58;;;13.60;90.40;;;;;;5048377;28;20119;-48
2022/04/26 10:59:59;;;;;;;6.13;2.25;;;13.60;90.10;;;;;;5044747;28;20509;-49
2022/04/26 11:02:27;;;;;;;6.25;2.47;;;13.60;90.00;;;;;;5049491;28;20506;-48
2022/04/26 11:05:08;;;;;;;5.03;1.90;;;13.70;89.60;;;;;;5045939;28;20036;-48
2022/04/26 11:07:35;;;;;;;9.90;2.90;;;13.70;89.20;;;;;;5051545;28;20068;-48
2022/04/26 11:10:01;;;;;;;5.47;2.13;;;13.70;89.90;;;;;;5047785;28;20071;-49
2022/04/26 11:12:29;;;;;;;4.70;2.22;;;13.70;89.10;;;;;;5050862;28;20033;-49
2022/04/26 11:15:00;;;;;;;9.65;2.88;;;13.70;88.90;;;;;;5049777;28;20560;-48
2022/04/26 11:17:27;;;;;;;6.13;2.15;;;13.70;88.60;;;;;;5051784;28;20090;-50
2022/04/26 11:19:55;;;;;;;5.82;2.67;;;13.70;89.00;;;;;;5046870;28;20394;-50
2022/04/26 11:22:22;;;;;;;5.90;2.72;;;13.80;90.00;;;;;;5048537;28;20387;-49
2022/04/26 11:30:30;;;;;;;10.70;2.72;;;14.30;87.80;;;;;;5049903;28;20077;-49
2022/04/26 11:33:15;;;;;;;4.35;2.50;;;14.50;87.70;;;;;;5075504;28;20056;-49
2022/04/26 11:35:41;;;;;;;11.30;2.30;;;14.60;85.10;;;;;;5079475;28;20084;-49
2022/04/26 11:38:15;;;;;;;39.95;4.05;;;14.60;85.70;;;;;;5048492;28;20071;-49
2022/04/26 11:40:46;;;;;;;6.03;2.30;;;14.70;83.90;;;;;;5046915;28;20048;-49
2022/04/26 11:43:17;;;;;;;34.45;3.53;;;14.70;84.80;;;;;;5049581;28;20048;-48
2022/04/26 11:45:47;;;;;;;5.15;2.00;;;14.70;83.20;;;;;;5044665;28;20032;-50
2022/04/26 11:48:17;;;;;;;5.07;2.00;;;14.80;83.00;;;;;;5048736;28;20521;-50
2022/04/26 11:50:44;;;;;;;3.88;2.40;;;14.80;83.70;;;;;;5050485;28;20095;-49
2022/04/26 11:53:17;;;;;;;6.63;1.80;;;14.80;83.10;;;;;;5047654;28;20128;-49
2022/04/26 11:55:53;;;;;;;9.38;2.60;;;14.80;83.60;;;;;;5046067;28;20036;-49
2022/04/26 11:58:23;;;;;;;3.45;2.30;;;14.80;83.10;;;;;;5052716;28;20040;-48
2022/04/26 12:01:15;;;;;;;4.55;1.85;;;14.80;83.30;;;;;;5048505;28;20036;-48
2022/04/26 12:03:46;;;;;;;7.03;2.47;;;14.70;81.90;;;;;;5048138;28;20066;-48
2022/04/26 12:06:13;;;;;;;9.73;3.13;;;14.80;81.90;;;;;;5048499;28;20043;-51
2022/04/26 12:08:43;;;;;;;3.95;2.00;;;14.90;83.50;;;;;;5048734;28;20090;-48
2022/04/26 12:11:20;;;;;;;8.18;2.03;;;15.10;83.10;;;;;;5048139;28;20029;-50
2022/04/26 12:13:57;;;;;;;4.03;1.73;;;15.20;81.70;;;;;;5045565;28;20116;-48
2022/04/26 12:16:23;;;;;;;;;;;15.20;80.80;;;;;;5047948;28;20057;-49
2022/04/26 12:18:49;;;;;;;7.47;2.08;;;15.10;80.30;;;;;;5047678;28;19920;-50
2022/04/26 12:21:14;;;;;;;5.32;1.80;;;15.10;80.40;;;;;;5046521;28;20410;-48
2022/04/26 12:23:40;;;;;;;3.85;1.60;;;15.00;81.00;;;;;;5048474;28;20033;-48
2022/04/26 12:26:07;;;;;;;6.25;1.92;;;15.00;81.50;;;;;;5051400;28;20037;-48
2022/04/26 12:28:48;;;;;;;8.30;2.13;;;15.00;81.50;;;;;;5048733;28;20048;-48
2022/04/26 12:31:21;;;;;;;6.22;2.47;;;15.10;80.80;;;;;;5046486;28;20036;-49
2022/04/26 12:34:12;;;;;;;7.30;3.00;;;15.00;80.20;;;;;;5042959;28;20502;-50
2022/04/26 12:36:51;;;;;;;11.30;2.42;;;15.00;80.40;;;;;;5031019;28;20469;-48
2022/04/26 12:39:17;;;;;;;4.50;1.92;;;14.90;79.40;;;;;;5041349;28;20406;-51
2022/04/26 12:41:51;;;;;;;4.45;1.50;;;14.90;80.30;;;;;;5039194;28;20037;-50
2022/04/26 12:44:17;;;;;;;4.25;1.90;;;14.90;79.70;;;;;;5037778;28;20041;-48
2022/04/26 12:52:31;;;;;;;4.72;1.20;;;14.90;79.20;;;;;;5048354;28;20410;-48
2022/04/26 12:54:56;;;;;;;4.47;1.95;;;15.00;76.80;;;;;;5046935;28;20510;-50
2022/04/26 12:57:22;;;;;;;7.40;1.38;;;15.00;78.60;;;;;;5050204;28;20037;-48
2022/04/26 12:59:47;;;;;;;5.25;1.52;;;15.10;77.90;;;;;;5048232;28;20490;-50
2022/04/26 13:02:13;;;;;;;2.05;1.42;;;15.20;76.80;;;;;;5047210;28;20029;-48
2022/04/26 13:04:39;;;;;;;;;;;15.30;76.90;;;;;;5049107;28;20545;-51
2022/04/26 13:07:05;;;;;;;3.60;1.52;;;15.30;75.50;;;;;;5049786;28;19916;-48
2022/04/26 13:09:30;;;;;;;3.85;2.08;;;15.40;75.70;;;;;;5055418;28;20994;-48
2022/04/26 13:11:56;;;;;;;11.35;7.88;;;15.60;78.30;;;;;;5050023;28;20055;-48
2022/04/26 13:14:23;;;;;;;14.93;3.75;;;15.70;77.20;;;;;;5054563;28;20124;-48
2022/04/26 13:16:50;;;;;;;3.08;1.75;;;15.90;76.50;;;;;;5050104;28;20080;-48
2022/04/26 13:19:15;;;;;;;;;;;16.00;76.80;;;;;;5052325;28;20033;-48
2022/04/26 13:21:41;;;;;;;2.05;1.20;;;16.00;75.20;;;;;;5049605;28;19924;-48
2022/04/26 13:24:06;;;;;;;5.93;1.35;;;16.00;75.70;;;;;;5051626;28;20032;-48
2022/04/26 13:26:35;;;;;;;2.80;1.27;;;15.90;74.40;;;;;;5052138;28;20461;-51
2022/04/26 13:29:00;;;;;;;5.13;1.25;;;16.00;74.60;;;;;;5050835;28;20119;-48
2022/04/26 13:31:26;;;;;;;7.63;1.23;;;16.00;74.20;;;;;;5045120;28;20139;-50
2022/04/26 13:33:51;;;;;;;4.88;1.52;;;16.10;75.00;;;;;;5049938;28;20127;-47
2022/04/26 13:36:17;;;;;;;5.65;1.10;;;16.20;75.20;;;;;;5053488;28;20045;-48
2022/04/26 13:38:43;;;;;;;4.40;1.67;;;16.20;72.80;;;;;;5056626;28;20041;-49
2022/04/26 13:41:09;;;;;;;7.45;1.23;;;16.30;73.70;;;;;;5053192;28;20051;-48
2022/04/26 13:43:34;;;;;;;;;;;16.30;73.50;;;;;;5051655;28;20044;-49
2022/04/26 13:46:00;;;;;;;3.40;1.20;;;16.40;72.70;;;;;;5053036;28;20574;-47
2022/04/26 13:48:26;;;;;;;3.92;0.70;;;16.40;72.20;;;;;;5053842;28;20033;-47
2022/04/26 13:50:51;;;;;;;8.57;1.38;;;16.40;72.80;;;;;;5050502;28;20044;-49
2022/04/26 13:53:17;;;;;;;7.63;1.27;;;16.40;71.40;;;;;;5051587;28;20170;-48
2022/04/26 13:55:42;;;;;;;3.90;1.15;;;16.40;71.60;;;;;;5049812;28;20094;-48
2022/04/26 13:58:10;;;;;;;3.90;1.58;;;16.50;72.10;;;;;;5050539;28;20040;-48
2022/04/26 14:00:36;;;;;;;10.77;1.30;;;16.50;71.70;;;;;;5049443;28;20040;-48
2022/04/26 14:03:03;;;;;;;9.27;1.10;;;16.40;71.30;;;;;;5047824;28;20041;-48
2022/04/26 14:05:28;;;;;;;6.13;1.58;;;16.40;70.40;;;;;;5051118;28;20048;-48
2022/04/26 14:07:54;;;;;;;3.63;1.38;;;16.40;70.80;;;;;;5056250;28;20044;-48
2022/04/26 14:10:20;;;;;;;2.22;0.98;;;16.40;70.10;;;;;;5051375;28;20123;-48
2022/04/26 14:12:45;;;;;;;5.00;0.93;;;16.30;70.00;;;;;;5051628;28;20041;-49
2022/04/26 14:23:27;;;;;;;3.95;1.60;;;16.00;70.20;;;;;;5074738;28;20036;-48
2022/04/26 14:25:53;;;;;;;4.00;1.10;;;15.90;70.00;;;;;;5046893;28;20036;-50
2022/04/26 14:28:19;;;;;;;5.32;1.33;;;15.90;70.10;;;;;;5050900;28;20044;-49
2022/04/26 14:30:44;;;;;;;8.38;1.70;;;15.90;70.60;;;;;;5049973;28;20049;-48
2022/04/26 14:33:10;;;;;;;1.75;1.60;;;15.90;70.00;;;;;;5049641;28;20071;-47
2022/04/26 14:35:35;;;;;;;7.53;1.88;;;15.90;69.20;;;;;;5050722;28;20037;-48
2022/04/26 14:38:01;;;;;;;5.45;1.33;;;15.90;69.40;;;;;;5053840;28;21792;-52
2022/04/26 14:40:27;;;;;;;4.15;1.17;;;15.90;69.50;;;;;;5049398;28;20068;-51
2022/04/26 14:42:54;;;;;;;4.90;1.17;;;15.90;70.20;;;;;;5046742;28;20475;-52
2022/04/26 14:45:20;;;;;;;10.43;1.60;;;16.00;70.10;;;;;;5045161;28;20049;-49
2022/04/26 14:47:46;;;;;;;;;;;16.00;69.30;;;;;;5047598;28;20166;-48
2022/04/26 14:50:13;;;;;;;4.82;1.20;;;16.00;68.00;;;;;;5066980;28;20432;-47
2022/04/26 14:52:39;;;;;;;1.70;0.88;;;16.00;69.50;;;;;;5062571;28;20079;-49
2022/04/26 14:55:07;;;;;;;5.00;1.52;;;16.00;69.30;;;;;;5052488;28;20033;-47
2022/04/26 14:57:33;;;;;;;5.50;1.38;;;16.00;69.30;;;;;;5055105;28;20436;-48
2022/04/26 14:59:59;;;;;;;5.35;1.10;;;16.00;69.00;;;;;;5050683;28;20163;-47
2022/04/26 15:02:24;;;;;;;2.55;1.08;;;16.00;69.10;;;;;;5053141;28;20422;-47
2022/04/26 15:04:51;;;;;;;3.55;0.90;;;15.90;68.80;;;;;;5051192;28;20502;-48
2022/04/26 15:07:17;;;;;;;5.57;0.80;;;15.90;68.30;;;;;;5051250;28;20041;-48
2022/04/26 15:09:43;;;;;;;3.22;1.20;;;15.90;67.80;;;;;;5053681;28;20228;-48
2022/04/26 15:17:43;;;;;;;3.50;1.20;;;15.80;67.70;;;;;;5056640;28;20056;-47
2022/04/26 15:20:10;;;;;;;2.78;1.08;;;15.70;66.70;;;;;;5049590;28;20040;-48
2022/04/26 15:22:39;;;;;;;4.78;1.05;;;15.70;68.10;;;;;;5056139;28;20124;-48
2022/04/26 15:25:06;;;;;;;2.50;1.20;;;15.70;68.60;;;;;;5050503;28;20029;-47
2022/04/26 15:27:39;;;;;;;4.60;1.67;;;15.60;67.20;;;;;;5050267;28;20040;-48
2022/04/26 15:30:10;;;;;;;5.25;0.93;;;15.60;67.50;;;;;;5048958;28;20486;-48
2022/04/26 15:32:35;;;;;;;3.10;1.38;;;15.50;67.70;;;;;;5058916;28;20497;-48
2022/04/26 15:35:01;;;;;;;3.42;1.23;;;15.50;66.70;;;;;;5050514;28;20071;-46
2022/04/26 15:37:28;;;;;;;1.73;0.77;;;15.50;67.50;;;;;;5051103;28;20107;-48
2022/04/26 15:39:54;;;;;;;3.28;1.20;;;15.50;66.90;;;;;;5048993;28;20048;-47
2022/04/26 15:42:23;;;;;;;4.72;1.13;;;15.40;66.90;;;;;;5049262;28;20124;-48
2022/04/26 15:44:49;;;;;;;3.72;1.00;;;15.40;67.30;;;;;;5056518;28;20560;-47
2022/04/26 15:47:14;;;;;;;3.75;0.93;;;15.40;68.00;;;;;;5054148;28;20079;-49
2022/04/26 15:49:40;;;;;;;3.55;1.33;;;15.40;67.40;;;;;;5049929;28;20044;-48
2022/04/26 15:52:07;;;;;;;4.57;1.38;;;15.40;67.20;;;;;;5051979;28;20029;-48
2022/04/26 15:54:33;;;;;;;4.57;0.90;;;15.40;66.50;;;;;;5045784;28;20068;-50
2022/04/26 15:56:59;;;;;;;5.10;1.27;;;15.30;66.20;;;;;;5049281;28;20036;-48
2022/04/26 15:59:25;;;;;;;4.25;1.02;;;15.20;66.60;;;;;;5052063;28;20502;-48
2022/04/26 16:01:50;;;;;;;3.10;1.02;;;15.20;67.00;;;;;;5048680;28;20210;-48
2022/04/26 16:04:16;;;;;;;1.27;0.80;;;15.10;67.40;;;;;;5050075;28;20494;-48
2022/04/26 16:06:41;;;;;;;2.88;1.38;;;15.10;67.70;;;;;;5051385;28;20048;-47
2022/04/26 16:22:51;;;;;;;2.50;1.08;;;14.90;67.90;;;;;;5049884;28;20045;-47
2022/04/26 16:25:16;;;;;;;5.40;1.53;;;14.80;68.10;;;;;;5049904;28;20041;-47
2022/04/26 16:27:42;;;;;;;3.83;0.85;;;14.80;68.40;;;;;;5049109;28;20626;-47
2022/04/26 16:30:09;;;;;;;7.15;1.67;;;14.80;68.50;;;;;;5057328;28;20146;-47
2022/04/26 16:32:35;;;;;;;7.10;1.40;;;14.80;68.40;;;;;;5051200;28;20413;-47
2022/04/26 16:35:01;;;;;;;8.30;1.88;;;14.80;68.40;;;;;;5047619;28;20072;-47
2022/04/26 16:37:27;;;;;;;4.53;1.40;;;14.80;69.00;;;;;;5055605;28;20482;-47
2022/04/26 16:39:52;;;;;;;5.13;1.40;;;14.80;69.00;;;;;;5050607;28;20797;-49
2022/04/26 16:42:18;;;;;;;8.25;1.60;;;14.80;69.00;;;;;;5053154;28;20091;-48
2022/04/26 16:44:44;;;;;;;6.45;1.52;;;14.90;69.80;;;;;;5058481;28;20414;-48
2022/04/26 16:47:12;;;;;;;3.00;1.27;;;14.90;69.00;;;;;;5058291;28;20033;-49
2022/04/26 16:49:39;;;;;;;9.15;2.40;;;14.90;68.80;;;;;;5053628;28;20045;-48
2022/04/26 16:52:05;;;;;;;8.60;1.40;;;15.00;69.70;;;;;;5049952;28;20052;-48
2022/04/26 16:54:30;;;;;;;3.90;1.83;;;15.10;68.50;;;;;;5054323;28;20379;-48
2022/04/26 16:56:56;;;;;;;5.28;1.65;;;15.20;68.60;;;;;;5044234;28;20402;-48
2022/04/26 16:59:23;;;;;;;7.22;2.05;;;15.10;67.90;;;;;;5047472;28;20033;-47
2022/04/26 17:01:48;;;;;;;6.32;1.73;;;15.00;68.50;;;;;;5080400;28;20041;-50
2022/04/26 17:04:14;;;;;;;5.20;1.15;;;14.70;68.50;;;;;;5057245;28;20039;-49
2022/04/26 17:06:40;;;;;;;3.08;1.40;;;14.60;68.70;;;;;;5062216;28;20036;-48
2022/04/26 17:09:07;;;;;;;3.45;1.58;;;14.50;69.20;;;;;;5067402;28;20455;-52
2022/04/26 17:11:42;;;;;;;5.43;1.60;;;14.40;69.80;;;;;;5053389;28;20051;-51
2022/04/26 17:14:14;;;;;;;4.35;1.30;;;14.30;70.30;;;;;;5048351;28;20124;-46